Time;durP1;ratioP1;P1;durP2;ratioP2;P2;SDS_P1;SDS_P2;PMS_P1;PMS_P2;Temp;Humidity;BMP_temperature;BMP_pressure;BME280_temperature;BME280_humidity;BME280_pressure;Samples;Min_cycle;Max_cycle;Signal;HPM_P1;HPM_P2
2022/11/07 00:01:12;;;;;;;7.78;5.55;;;10.30;99.90;;;;;;4984540;28;20050;-74
2022/11/07 00:03:38;;;;;;;9.13;5.22;;;10.40;99.90;;;;;;4985899;28;20046;-74
2022/11/07 00:06:04;;;;;;;5.63;4.38;;;10.40;99.90;;;;;;4984559;28;20404;-74
2022/11/07 00:08:32;;;;;;;10.90;5.43;;;10.40;99.90;;;;;;4985353;28;20100;-74
2022/11/07 00:11:02;;;;;;;6.20;5.15;;;10.40;99.90;;;;;;4985525;28;20042;-73
2022/11/07 00:13:29;;;;;;;8.05;5.20;;;10.40;99.90;;;;;;4984582;28;20046;-76
2022/11/07 00:15:58;;;;;;;10.35;5.97;;;10.50;99.90;;;;;;4985348;28;20034;-73
2022/11/07 00:18:24;;;;;;;18.77;6.78;;;10.40;99.90;;;;;;4985971;28;20046;-74
2022/11/07 00:20:49;;;;;;;7.63;5.88;;;10.40;99.90;;;;;;4985659;28;20382;-77
2022/11/07 00:23:15;;;;;;;14.18;7.30;;;10.40;99.90;;;;;;4985244;28;20046;-74
2022/11/07 00:25:41;;;;;;;9.07;6.30;;;10.40;99.90;;;;;;4989032;28;20528;-74
2022/11/07 00:28:06;;;;;;;7.32;5.60;;;10.40;99.90;;;;;;4985317;28;20050;-73
2022/11/07 00:30:32;;;;;;;8.32;5.60;;;10.40;99.90;;;;;;4985322;28;20121;-73
2022/11/07 00:32:57;;;;;;;9.80;5.15;;;10.40;99.90;;;;;;4985477;28;20500;-74
2022/11/07 00:35:23;;;;;;;8.13;4.57;;;10.40;99.90;;;;;;4985574;28;20758;-74
2022/11/07 00:37:49;;;;;;;7.50;5.10;;;10.50;99.90;;;;;;4984946;28;20719;-73
2022/11/07 00:40:14;;;;;;;7.55;5.05;;;10.50;99.90;;;;;;4986028;28;20044;-74
2022/11/07 00:42:40;;;;;;;7.15;6.45;;;10.50;99.90;;;;;;4985746;28;20046;-74
2022/11/07 00:45:06;;;;;;;6.68;4.80;;;10.40;99.90;;;;;;4985234;28;20046;-76
2022/11/07 00:47:32;;;;;;;7.65;5.03;;;10.40;99.90;;;;;;4985541;28;20054;-75
2022/11/07 00:49:57;;;;;;;8.98;5.28;;;10.50;99.90;;;;;;4985339;28;20131;-74
2022/11/07 00:52:23;;;;;;;17.33;5.15;;;10.50;99.90;;;;;;4984733;28;20050;-73
2022/11/07 00:54:48;;;;;;;8.90;4.70;;;10.50;99.90;;;;;;4985058;28;20133;-76
2022/11/07 00:57:14;;;;;;;8.00;5.25;;;10.40;99.90;;;;;;4984571;28;20038;-76
2022/11/07 00:59:39;;;;;;;8.70;4.85;;;10.40;99.90;;;;;;4967875;28;20064;-74
2022/11/07 01:02:05;;;;;;;9.18;5.13;;;10.40;99.90;;;;;;4983509;28;20437;-73
2022/11/07 01:07:15;;;;;;;9.55;4.50;;;10.40;99.90;;;;;;4983003;28;20559;-77
2022/11/07 01:09:40;;;;;;;12.35;6.10;;;10.40;99.90;;;;;;4985078;28;20046;-74
2022/11/07 01:12:06;;;;;;;10.32;5.93;;;10.30;99.90;;;;;;4984690;28;20046;-74
2022/11/07 01:14:32;;;;;;;8.45;5.88;;;10.40;99.90;;;;;;4985085;28;20104;-75
2022/11/07 01:16:57;;;;;;;9.57;5.90;;;10.40;99.90;;;;;;4983282;28;20054;-74
2022/11/07 01:19:23;;;;;;;16.90;5.97;;;10.40;99.90;;;;;;4985096;28;20042;-75
2022/11/07 01:21:48;;;;;;;12.48;5.53;;;10.40;99.90;;;;;;4985092;28;20126;-75
2022/11/07 01:24:15;;;;;;;10.55;4.75;;;10.40;99.90;;;;;;4983998;28;20056;-73
2022/11/07 01:26:42;;;;;;;8.98;4.82;;;10.40;99.90;;;;;;4981534;28;20066;-75
2022/11/07 01:29:08;;;;;;;15.38;4.60;;;10.40;99.90;;;;;;4964174;28;20046;-76
2022/11/07 01:31:34;;;;;;;6.95;4.95;;;10.40;99.90;;;;;;4964371;28;20134;-73
2022/11/07 01:33:59;;;;;;;5.40;4.63;;;10.40;99.90;;;;;;4971518;28;20030;-74
2022/11/07 01:36:26;;;;;;;10.18;5.82;;;10.50;99.90;;;;;;4984762;28;20042;-74
2022/11/07 01:38:52;;;;;;;9.27;5.13;;;10.50;99.90;;;;;;4982348;28;20512;-77
2022/11/07 01:41:24;;;;;;;7.25;4.72;;;10.40;99.90;;;;;;4983902;28;20046;-74
2022/11/07 01:43:59;;;;;;;5.13;3.63;;;10.40;99.90;;;;;;4983403;28;20437;-75
2022/11/07 01:46:33;;;;;;;6.20;5.00;;;10.50;99.90;;;;;;4983636;28;20133;-74
2022/11/07 01:49:10;;;;;;;15.18;4.35;;;10.50;99.90;;;;;;4984558;28;20579;-73
2022/11/07 01:51:42;;;;;;;8.15;3.83;;;10.50;99.90;;;;;;4965309;28;20077;-74
2022/11/07 01:54:10;;;;;;;20.58;4.72;;;10.40;99.90;;;;;;4964015;28;20039;-76
2022/11/07 01:56:39;;;;;;;6.68;4.47;;;10.40;99.90;;;;;;4964974;28;20765;-76
2022/11/07 01:59:06;;;;;;;7.40;4.00;;;10.40;99.90;;;;;;4965081;28;20043;-73
2022/11/07 02:01:31;;;;;;;10.10;3.67;;;10.40;99.90;;;;;;4965064;28;20178;-76
2022/11/07 02:03:58;;;;;;;7.07;3.20;;;10.40;99.90;;;;;;4970763;28;20563;-74
2022/11/07 02:06:46;;;;;;;6.13;3.88;;;10.40;99.90;;;;;;4986955;28;20042;-75
2022/11/07 02:09:12;;;;;;;10.80;5.05;;;10.40;99.90;;;;;;4986203;28;20050;-77
2022/11/07 02:11:38;;;;;;;6.63;4.07;;;10.40;99.90;;;;;;4986658;28;20054;-74
2022/11/07 02:14:03;;;;;;;13.15;4.93;;;10.40;99.90;;;;;;4987747;28;20117;-73
2022/11/07 02:16:31;;;;;;;11.00;4.57;;;10.40;99.90;;;;;;4988004;28;20494;-75
2022/11/07 02:18:58;;;;;;;6.25;4.38;;;10.40;99.90;;;;;;4986374;28;20054;-76
2022/11/07 02:21:47;;;;;;;5.28;3.70;;;10.40;99.90;;;;;;4988332;28;20049;-74
2022/11/07 02:24:22;;;;;;;7.32;3.83;;;10.50;99.90;;;;;;4985600;28;20042;-76
2022/11/07 02:26:48;;;;;;;6.07;3.53;;;10.50;99.90;;;;;;4971603;28;20047;-74
2022/11/07 02:29:14;;;;;;;9.07;4.63;;;10.50;99.90;;;;;;4967890;28;20506;-77
2022/11/07 02:31:39;;;;;;;7.80;3.95;;;10.50;99.90;;;;;;4968247;28;20054;-74
2022/11/07 02:34:05;;;;;;;12.55;3.05;;;10.50;99.90;;;;;;4966706;28;20105;-73
2022/11/07 02:36:31;;;;;;;9.70;4.47;;;10.50;99.90;;;;;;4968741;28;20047;-77
2022/11/07 02:38:58;;;;;;;9.40;3.40;;;10.50;99.90;;;;;;4966903;28;20405;-75
2022/11/07 02:41:29;;;;;;;10.73;6.47;;;10.50;99.90;;;;;;4969058;28;20050;-75
2022/11/07 02:43:59;;;;;;;20.30;4.95;;;10.50;99.90;;;;;;4967455;28;20532;-74
2022/11/07 02:46:28;;;;;;;8.50;3.50;;;10.50;99.90;;;;;;4979928;28;20051;-75
2022/11/07 02:48:56;;;;;;;7.88;3.60;;;10.50;99.90;;;;;;4987818;28;20129;-75
2022/11/07 02:51:22;;;;;;;9.35;3.20;;;10.50;99.90;;;;;;4986911;28;20508;-74
2022/11/07 02:53:47;;;;;;;6.47;3.70;;;10.60;99.90;;;;;;4986834;28;20043;-73
2022/11/07 02:56:13;;;;;;;13.63;3.55;;;10.60;99.90;;;;;;4987227;28;20042;-75
2022/11/07 02:58:39;;;;;;;8.15;3.70;;;10.60;99.90;;;;;;4986609;28;20493;-75
2022/11/07 03:01:08;;;;;;;3.05;2.50;;;10.60;99.90;;;;;;4987069;28;20079;-76
2022/11/07 03:03:37;;;;;;;5.53;3.22;;;10.60;99.90;;;;;;4987365;28;20046;-73
2022/11/07 03:06:04;;;;;;;6.07;3.75;;;10.60;99.90;;;;;;4986891;28;20077;-76
2022/11/07 03:08:30;;;;;;;3.40;3.10;;;10.60;99.90;;;;;;4985541;28;20042;-74
2022/11/07 03:10:55;;;;;;;15.20;3.60;;;10.60;99.90;;;;;;4969388;28;20049;-75
2022/11/07 03:13:22;;;;;;;5.47;3.00;;;10.60;99.90;;;;;;4987269;28;20066;-78
2022/11/07 03:15:48;;;;;;;4.65;3.08;;;10.60;99.90;;;;;;4987391;28;20054;-77
2022/11/07 03:18:14;;;;;;;6.95;2.95;;;10.60;99.90;;;;;;4985712;28;20058;-74
2022/11/07 03:20:40;;;;;;;9.38;3.42;;;10.60;99.90;;;;;;4987008;28;20042;-75
2022/11/07 03:23:05;;;;;;;8.15;4.50;;;10.60;99.90;;;;;;4984461;28;20129;-74
2022/11/07 03:25:31;;;;;;;12.02;4.22;;;10.60;99.90;;;;;;4985552;28;20130;-76
2022/11/07 03:27:56;;;;;;;4.55;3.03;;;10.60;99.90;;;;;;4986740;28;20042;-76
2022/11/07 03:30:22;;;;;;;7.65;3.40;;;10.60;99.90;;;;;;4986272;28;20034;-77
2022/11/07 03:32:51;;;;;;;9.20;3.70;;;10.50;99.90;;;;;;4986870;28;20081;-73
2022/11/07 03:35:16;;;;;;;9.18;2.60;;;10.60;99.90;;;;;;4985220;28;20087;-77
2022/11/07 03:37:45;;;;;;;19.15;3.55;;;10.50;99.90;;;;;;4984359;28;20422;-74
2022/11/07 03:40:11;;;;;;;7.00;3.08;;;10.50;99.90;;;;;;4986344;28;20046;-74
2022/11/07 03:42:40;;;;;;;6.95;2.63;;;10.50;99.90;;;;;;4985253;28;20038;-75
2022/11/07 03:45:07;;;;;;;5.53;2.60;;;10.60;99.90;;;;;;4984928;28;20110;-74
2022/11/07 03:47:37;;;;;;;6.50;2.67;;;10.50;99.90;;;;;;4986399;28;20149;-75
2022/11/07 03:50:03;;;;;;;4.40;3.30;;;10.50;99.90;;;;;;4986002;28;20056;-75
2022/11/07 03:52:29;;;;;;;5.63;2.63;;;10.50;99.90;;;;;;4985604;28;20105;-74
2022/11/07 03:54:54;;;;;;;9.38;2.72;;;10.50;99.90;;;;;;4986111;28;20042;-75
2022/11/07 03:57:20;;;;;;;5.20;3.03;;;10.50;99.90;;;;;;4985204;28;20046;-74
2022/11/07 03:59:45;;;;;;;8.32;3.25;;;10.50;99.90;;;;;;4986083;28;20047;-76
2022/11/07 04:02:11;;;;;;;5.35;2.40;;;10.50;99.90;;;;;;4985722;28;20072;-74
2022/11/07 04:04:37;;;;;;;8.25;2.78;;;10.50;99.90;;;;;;4986297;28;20513;-73
2022/11/07 04:07:02;;;;;;;4.40;2.42;;;10.50;99.90;;;;;;4984974;28;20050;-73
2022/11/07 04:09:28;;;;;;;8.68;2.40;;;10.50;99.90;;;;;;4986211;28;20125;-75
2022/11/07 04:17:22;;;;;;;9.65;3.85;;;10.50;99.90;;;;;;4984666;28;20088;-74
2022/11/07 04:19:51;;;;;;;5.45;3.03;;;10.50;99.90;;;;;;4985512;28;20077;-76
2022/11/07 04:22:17;;;;;;;15.65;4.05;;;10.60;99.90;;;;;;4984677;28;20060;-74
2022/11/07 04:24:43;;;;;;;9.85;3.22;;;10.60;99.90;;;;;;4984582;28;20129;-73
2022/11/07 04:29:54;;;;;;;9.63;3.70;;;10.60;99.90;;;;;;4981877;28;20480;-75
2022/11/07 04:32:22;;;;;;;6.25;3.33;;;10.70;99.90;;;;;;4984697;28;20042;-73
2022/11/07 04:34:47;;;;;;;6.80;3.30;;;10.70;99.90;;;;;;4984377;28;20096;-76
2022/11/07 04:37:13;;;;;;;7.40;2.75;;;10.60;99.90;;;;;;4983205;28;20054;-75
2022/11/07 04:39:39;;;;;;;11.18;4.18;;;10.60;99.90;;;;;;4985343;28;20045;-74
2022/11/07 04:42:04;;;;;;;8.95;3.50;;;10.60;99.90;;;;;;4985227;28;20476;-74
2022/11/07 04:44:30;;;;;;;14.18;3.72;;;10.70;99.90;;;;;;4985372;28;20084;-74
2022/11/07 04:46:55;;;;;;;8.82;3.97;;;10.70;99.90;;;;;;4984249;28;20085;-78
2022/11/07 04:49:21;;;;;;;8.02;3.85;;;10.70;99.90;;;;;;4985468;28;20046;-75
2022/11/07 04:51:47;;;;;;;4.35;3.03;;;10.70;99.90;;;;;;4983104;28;20044;-74
2022/11/07 04:54:13;;;;;;;13.27;4.75;;;10.70;99.90;;;;;;4984573;28;20050;-73
2022/11/07 04:56:40;;;;;;;6.68;3.58;;;10.70;99.90;;;;;;4985269;28;20504;-76
2022/11/07 04:59:07;;;;;;;10.38;3.72;;;10.60;99.90;;;;;;4984404;28;20065;-76
2022/11/07 05:01:33;;;;;;;9.25;3.63;;;10.60;99.90;;;;;;4983826;28;20046;-74
2022/11/07 05:03:58;;;;;;;9.88;3.65;;;10.60;99.90;;;;;;4985298;28;20050;-78
2022/11/07 05:06:24;;;;;;;13.05;4.18;;;10.60;99.90;;;;;;4985498;28;20141;-75
2022/11/07 05:08:50;;;;;;;8.90;3.72;;;10.50;99.90;;;;;;4982857;28;20077;-75
2022/11/07 05:11:15;;;;;;;8.55;3.65;;;10.50;99.90;;;;;;4984694;28;20054;-76
2022/11/07 05:13:41;;;;;;;10.98;3.97;;;10.50;99.90;;;;;;4984725;28;20104;-75
2022/11/07 05:16:18;;;;;;;5.05;3.08;;;10.50;99.90;;;;;;4984821;28;20038;-74
2022/11/07 05:18:44;;;;;;;7.25;3.58;;;10.50;99.90;;;;;;4983765;28;20054;-73
2022/11/07 05:21:10;;;;;;;9.45;3.28;;;10.50;99.90;;;;;;4984789;28;20056;-75
2022/11/07 05:23:35;;;;;;;4.90;2.80;;;10.50;99.90;;;;;;4983498;28;20538;-74
2022/11/07 05:26:01;;;;;;;8.68;2.78;;;10.60;99.90;;;;;;4984575;28;20042;-77
2022/11/07 05:28:29;;;;;;;12.43;2.70;;;10.60;99.90;;;;;;4984994;28;20042;-78
2022/11/07 05:30:59;;;;;;;4.57;2.60;;;10.50;99.90;;;;;;4985302;28;20101;-74
2022/11/07 05:33:25;;;;;;;3.53;2.25;;;10.60;99.90;;;;;;4985229;28;20046;-74
2022/11/07 05:35:50;;;;;;;7.13;3.55;;;10.50;99.90;;;;;;4984728;28;20053;-74
2022/11/07 05:38:16;;;;;;;7.45;3.58;;;10.60;99.90;;;;;;4983671;28;20054;-74
2022/11/07 05:40:42;;;;;;;2.63;2.30;;;10.60;99.90;;;;;;4985028;28;20038;-76
2022/11/07 05:43:10;;;;;;;4.13;2.67;;;10.50;99.90;;;;;;4968611;28;20050;-75
2022/11/07 05:45:37;;;;;;;4.68;3.50;;;10.50;99.90;;;;;;4969321;28;20122;-75
2022/11/07 05:48:05;;;;;;;4.47;2.42;;;10.50;99.90;;;;;;4968749;28;20042;-75
2022/11/07 05:50:31;;;;;;;3.83;2.17;;;10.50;99.90;;;;;;4969119;28;20039;-75
2022/11/07 05:52:57;;;;;;;6.82;1.90;;;10.50;99.90;;;;;;4968699;28;20051;-74
2022/11/07 05:55:23;;;;;;;2.90;2.20;;;10.50;99.90;;;;;;4968632;28;20383;-73
2022/11/07 05:57:49;;;;;;;3.97;2.63;;;10.50;99.90;;;;;;4977846;28;20054;-76
2022/11/07 06:00:15;;;;;;;14.35;3.95;;;10.50;99.90;;;;;;4988005;28;20098;-75
2022/11/07 06:02:41;;;;;;;2.70;2.03;;;10.50;99.90;;;;;;4987654;28;20038;-74
2022/11/07 06:05:07;;;;;;;4.05;2.63;;;10.50;99.90;;;;;;4984096;28;20057;-73
2022/11/07 06:07:37;;;;;;;5.85;2.40;;;10.50;99.90;;;;;;4985836;28;20057;-75
2022/11/07 06:10:07;;;;;;;7.05;2.90;;;10.50;99.90;;;;;;4987395;28;20046;-76
2022/11/07 06:12:33;;;;;;;7.28;2.95;;;10.50;99.90;;;;;;4987844;28;20452;-74
2022/11/07 06:14:59;;;;;;;3.55;2.67;;;10.50;99.90;;;;;;4988144;28;20157;-78
2022/11/07 06:17:25;;;;;;;5.45;3.03;;;10.50;99.90;;;;;;4988706;28;20043;-74
2022/11/07 06:19:50;;;;;;;3.03;2.45;;;10.50;99.90;;;;;;4988555;28;20038;-75
2022/11/07 06:22:16;;;;;;;2.67;2.17;;;10.50;99.90;;;;;;4982478;28;20049;-74
2022/11/07 06:24:41;;;;;;;3.55;2.58;;;10.60;99.90;;;;;;4987883;28;20054;-77
2022/11/07 06:27:07;;;;;;;3.85;2.50;;;10.60;99.90;;;;;;4986903;28;20041;-75
2022/11/07 06:29:32;;;;;;;4.55;2.83;;;10.60;99.90;;;;;;4988228;28;20046;-74
2022/11/07 06:31:58;;;;;;;3.53;1.88;;;10.60;99.90;;;;;;4988437;28;20459;-74
2022/11/07 06:34:24;;;;;;;5.35;2.92;;;10.60;99.90;;;;;;4989078;28;20057;-80
2022/11/07 06:36:54;;;;;;;5.63;2.88;;;10.60;99.90;;;;;;4985579;28;20042;-77
2022/11/07 06:39:20;;;;;;;11.57;3.58;;;10.60;99.90;;;;;;4985428;28;20042;-76
2022/11/07 06:41:47;;;;;;;6.55;3.45;;;10.60;99.90;;;;;;4985857;28;20162;-76
2022/11/07 06:44:13;;;;;;;4.97;3.67;;;10.70;99.90;;;;;;4987470;28;20077;-76
2022/11/07 06:46:38;;;;;;;7.53;4.68;;;10.60;99.90;;;;;;4987907;28;20116;-77
2022/11/07 06:49:04;;;;;;;15.40;3.85;;;10.60;99.90;;;;;;4987653;28;20038;-75
2022/11/07 06:51:30;;;;;;;9.13;4.38;;;10.70;99.90;;;;;;4986874;28;20052;-75
2022/11/07 06:53:56;;;;;;;12.90;4.88;;;10.70;99.90;;;;;;4984699;28;20444;-74
2022/11/07 06:56:22;;;;;;;6.32;4.03;;;10.70;99.90;;;;;;4986597;28;20508;-73
2022/11/07 06:58:48;;;;;;;7.88;4.30;;;10.70;99.90;;;;;;4986150;28;20601;-73
2022/11/07 07:01:15;;;;;;;5.35;2.90;;;10.70;99.90;;;;;;4986935;28;20117;-72
2022/11/07 07:03:42;;;;;;;7.35;3.30;;;10.70;99.90;;;;;;4987036;28;20050;-76
2022/11/07 07:06:13;;;;;;;5.82;3.28;;;10.70;99.90;;;;;;4984862;28;20096;-76
2022/11/07 07:08:39;;;;;;;6.55;4.13;;;10.70;99.90;;;;;;4989565;28;20038;-75
2022/11/07 07:11:07;;;;;;;10.20;5.32;;;10.70;99.90;;;;;;4987488;28;20497;-76
2022/11/07 07:13:33;;;;;;;10.60;4.00;;;10.60;99.90;;;;;;4988150;28;20047;-74
2022/11/07 07:15:58;;;;;;;10.65;4.93;;;10.70;99.90;;;;;;4976480;28;20038;-74
2022/11/07 07:18:25;;;;;;;13.07;4.60;;;10.70;99.90;;;;;;4986458;28;20050;-74
2022/11/07 07:20:53;;;;;;;16.60;4.95;;;10.60;99.90;;;;;;4984664;28;20046;-75
2022/11/07 07:23:20;;;;;;;6.93;3.63;;;10.70;99.90;;;;;;4985210;28;20086;-78
2022/11/07 07:25:46;;;;;;;7.00;3.80;;;10.70;99.90;;;;;;4984433;28;20532;-74
2022/11/07 07:28:12;;;;;;;13.15;3.92;;;10.80;99.90;;;;;;4986355;28;20050;-74
2022/11/07 07:30:38;;;;;;;7.85;4.40;;;10.70;99.90;;;;;;4986167;28;20053;-75
2022/11/07 07:33:04;;;;;;;7.28;3.97;;;10.70;99.90;;;;;;4987217;28;20038;-75
2022/11/07 07:35:29;;;;;;;12.13;4.95;;;10.70;99.90;;;;;;4986567;28;20242;-73
2022/11/07 07:37:55;;;;;;;7.55;3.78;;;10.70;99.90;;;;;;4987502;28;20089;-74
2022/11/07 07:40:21;;;;;;;7.45;3.63;;;10.70;99.90;;;;;;4987809;28;20054;-75
2022/11/07 07:42:47;;;;;;;6.22;3.78;;;10.70;99.90;;;;;;4985731;28;20046;-78
2022/11/07 07:45:14;;;;;;;6.90;3.92;;;10.80;99.90;;;;;;4986131;28;20038;-76
2022/11/07 07:47:40;;;;;;;7.68;4.05;;;10.80;99.90;;;;;;4984401;28;20498;-73
2022/11/07 07:50:08;;;;;;;15.35;4.72;;;10.80;99.90;;;;;;4982386;28;20049;-73
2022/11/07 07:52:34;;;;;;;8.40;3.35;;;10.80;99.90;;;;;;4982371;28;20034;-72
2022/11/07 07:54:59;;;;;;;7.80;3.95;;;10.80;99.90;;;;;;4983603;28;20046;-71
2022/11/07 07:57:25;;;;;;;8.07;4.03;;;10.90;99.90;;;;;;4985262;28;20050;-74
2022/11/07 07:59:51;;;;;;;5.32;4.07;;;10.90;99.90;;;;;;4985128;28;20030;-76
2022/11/07 08:02:16;;;;;;;10.52;3.92;;;10.90;99.90;;;;;;4981816;28;20038;-75
2022/11/07 08:04:42;;;;;;;7.35;4.20;;;10.90;99.90;;;;;;4985013;28;20053;-75
2022/11/07 08:07:08;;;;;;;8.25;4.25;;;10.90;99.90;;;;;;4981360;28;20054;-76
2022/11/07 08:09:37;;;;;;;13.05;5.38;;;10.90;99.90;;;;;;4985836;28;20495;-78
2022/11/07 08:12:04;;;;;;;6.30;4.38;;;10.90;99.90;;;;;;5001243;28;20061;-77
2022/11/07 08:14:31;;;;;;;6.78;4.45;;;10.90;99.90;;;;;;5004562;28;20107;-75
2022/11/07 08:16:57;;;;;;;17.77;4.80;;;10.90;99.90;;;;;;5004616;28;20042;-75
2022/11/07 08:19:22;;;;;;;6.40;3.80;;;11.00;99.90;;;;;;5004823;28;20550;-75
2022/11/07 08:21:48;;;;;;;10.95;5.13;;;11.00;99.90;;;;;;4988032;28;20067;-75
2022/11/07 08:24:13;;;;;;;9.68;5.70;;;11.00;99.90;;;;;;4982269;28;20451;-75
2022/11/07 08:26:39;;;;;;;19.33;6.15;;;11.00;99.90;;;;;;4986128;28;20094;-74
2022/11/07 08:29:05;;;;;;;8.27;4.50;;;11.00;99.90;;;;;;4986235;28;20080;-76
2022/11/07 08:31:30;;;;;;;16.48;4.93;;;11.00;99.90;;;;;;4987506;28;20057;-78
2022/11/07 08:33:59;;;;;;;13.38;4.30;;;11.10;99.90;;;;;;4997344;28;20026;-79
2022/11/07 08:36:26;;;;;;;8.85;5.40;;;11.00;99.90;;;;;;4983801;28;20046;-80
2022/11/07 08:38:52;;;;;;;9.07;5.07;;;11.10;99.90;;;;;;4985867;28;20101;-77
2022/11/07 08:41:18;;;;;;;10.07;5.00;;;11.10;99.90;;;;;;4983101;28;20579;-76
2022/11/07 08:43:44;;;;;;;15.43;6.15;;;11.10;99.90;;;;;;4985820;28;20034;-76
2022/11/07 08:46:10;;;;;;;10.48;5.45;;;11.10;99.90;;;;;;4987285;28;20096;-76
2022/11/07 08:48:35;;;;;;;11.98;4.97;;;11.10;99.90;;;;;;4986041;28;20118;-76
2022/11/07 08:51:04;;;;;;;16.88;5.10;;;11.10;99.90;;;;;;4986124;28;20485;-78
2022/11/07 08:53:31;;;;;;;11.30;5.65;;;11.20;99.90;;;;;;4986419;28;20130;-77
2022/11/07 08:56:06;;;;;;;17.20;6.15;;;11.20;99.90;;;;;;4986254;28;20069;-78
2022/11/07 08:58:32;;;;;;;9.52;5.00;;;11.20;99.90;;;;;;4979534;28;20055;-75
2022/11/07 09:00:58;;;;;;;17.33;5.97;;;11.20;99.90;;;;;;4992099;28;20056;-75
2022/11/07 09:03:23;;;;;;;9.93;5.28;;;11.20;99.90;;;;;;4992554;28;20481;-76
2022/11/07 09:05:49;;;;;;;14.85;5.35;;;11.20;99.90;;;;;;4983295;28;20397;-75
2022/11/07 09:08:16;;;;;;;12.80;5.28;;;11.20;99.90;;;;;;4980923;28;20050;-74
2022/11/07 09:10:41;;;;;;;9.48;4.75;;;11.20;99.90;;;;;;4966676;28;20054;-74
2022/11/07 09:13:07;;;;;;;11.68;4.43;;;11.20;99.90;;;;;;4981651;28;20334;-78
2022/11/07 09:15:32;;;;;;;8.55;5.18;;;11.30;99.90;;;;;;4983870;28;20149;-74
2022/11/07 09:18:05;;;;;;;17.35;5.65;;;11.30;99.90;;;;;;4983338;28;20147;-74
2022/11/07 09:20:31;;;;;;;10.27;5.30;;;11.30;99.90;;;;;;4984200;28;20121;-75
2022/11/07 09:22:58;;;;;;;21.00;4.85;;;11.30;99.90;;;;;;4982559;28;20453;-76
2022/11/07 09:25:24;;;;;;;9.23;4.35;;;11.30;99.90;;;;;;4985590;28;20038;-80
2022/11/07 09:27:50;;;;;;;10.50;5.28;;;11.30;99.90;;;;;;4985475;28;20042;-77
2022/11/07 09:30:17;;;;;;;10.63;4.55;;;11.40;99.90;;;;;;4982888;28;20048;-77
2022/11/07 09:32:42;;;;;;;16.00;5.85;;;11.40;99.90;;;;;;4985306;28;20053;-77
2022/11/07 09:35:08;;;;;;;13.30;5.35;;;11.40;99.90;;;;;;4983485;28;20421;-77
2022/11/07 09:37:37;;;;;;;10.10;5.35;;;11.40;99.90;;;;;;4984013;28;20048;-78
2022/11/07 09:40:04;;;;;;;9.13;5.00;;;11.50;99.90;;;;;;4984038;28;20050;-76
2022/11/07 09:42:49;;;;;;;9.70;4.13;;;11.50;99.90;;;;;;4985215;28;20058;-76
2022/11/07 09:45:15;;;;;;;9.18;4.47;;;11.50;99.90;;;;;;4985688;28;20039;-77
2022/11/07 09:48:03;;;;;;;11.77;6.05;;;11.50;99.90;;;;;;4986651;28;20170;-76
2022/11/07 09:50:39;;;;;;;10.63;4.35;;;11.50;99.90;;;;;;4984695;28;20046;-76
2022/11/07 09:53:05;;;;;;;9.57;4.50;;;11.60;99.90;;;;;;4981539;28;20496;-76
2022/11/07 09:55:41;;;;;;;8.02;5.25;;;11.60;99.90;;;;;;4984881;28;20062;-77
2022/11/07 09:58:30;;;;;;;8.40;4.55;;;11.50;99.90;;;;;;4982946;28;20050;-78
2022/11/07 10:01:00;;;;;;;10.27;5.18;;;11.60;99.90;;;;;;4983819;28;20128;-77
2022/11/07 10:03:25;;;;;;;10.98;4.95;;;11.60;99.90;;;;;;4973724;28;20051;-76
2022/11/07 10:06:19;;;;;;;13.35;5.80;;;11.60;99.90;;;;;;4982616;28;20046;-77
2022/11/07 10:08:51;;;;;;;12.38;3.90;;;11.70;99.90;;;;;;4984498;28;20117;-76
2022/11/07 10:11:37;;;;;;;;;;;11.70;99.90;;;;;;4982373;28;20057;-75
2022/11/07 10:14:31;;;;;;;7.20;3.45;;;11.70;99.90;;;;;;4968876;28;19937;-78
2022/11/07 10:17:18;;;;;;;6.03;4.35;;;11.70;99.90;;;;;;4983841;28;20061;-77
2022/11/07 10:19:53;;;;;;;12.68;4.05;;;11.70;99.90;;;;;;4982995;28;20050;-76
2022/11/07 10:22:40;;;;;;;4.70;3.45;;;11.80;99.90;;;;;;4962673;28;20101;-76
2022/11/07 10:25:17;;;;;;;7.75;4.25;;;11.80;99.90;;;;;;4966786;28;20042;-76
2022/11/07 10:27:49;;;;;;;6.75;4.55;;;11.90;99.90;;;;;;4986105;28;20064;-75
2022/11/07 10:30:18;;;;;;;7.80;4.35;;;11.90;99.90;;;;;;4985039;28;20046;-74
2022/11/07 10:33:03;;;;;;;6.28;3.20;;;11.90;99.90;;;;;;4986839;28;20054;-77
2022/11/07 10:35:36;;;;;;;14.20;4.25;;;11.90;99.90;;;;;;4970807;28;20118;-76
2022/11/07 10:38:18;;;;;;;10.80;4.13;;;11.90;99.90;;;;;;4984477;28;20042;-74
2022/11/07 10:40:45;;;;;;;13.48;4.53;;;12.00;99.90;;;;;;4985273;28;20043;-74
2022/11/07 10:43:33;;;;;;;4.85;2.92;;;12.00;99.90;;;;;;4985844;28;20157;-74
2022/11/07 10:46:01;;;;;;;16.50;4.07;;;12.00;99.90;;;;;;4986208;28;20042;-76
2022/11/07 10:48:30;;;;;;;6.70;4.18;;;12.00;99.90;;;;;;4986288;28;20493;-74
2022/11/07 10:50:56;;;;;;;10.30;4.60;;;12.00;99.90;;;;;;4985169;28;20050;-73
2022/11/07 10:53:24;;;;;;;6.65;3.15;;;12.00;99.90;;;;;;4984100;28;20077;-75
2022/11/07 10:55:51;;;;;;;12.50;3.45;;;12.10;99.90;;;;;;4968533;28;20493;-75
2022/11/07 10:58:28;;;;;;;7.03;4.65;;;12.10;99.90;;;;;;4985242;28;20148;-75
2022/11/07 11:01:04;;;;;;;6.80;4.20;;;12.20;99.90;;;;;;4969491;28;20040;-74
2022/11/07 11:03:47;;;;;;;10.40;3.30;;;12.20;99.90;;;;;;4984457;28;20129;-77
2022/11/07 11:06:32;;;;;;;8.73;4.35;;;12.30;99.90;;;;;;4985088;28;20126;-75
2022/11/07 11:09:10;;;;;;;16.50;4.40;;;12.20;99.90;;;;;;4984960;28;20038;-75
2022/11/07 11:11:36;;;;;;;7.28;3.80;;;12.20;99.90;;;;;;4968048;28;20042;-75
2022/11/07 11:14:03;;;;;;;8.00;3.75;;;12.30;99.90;;;;;;4968196;28;20133;-74
2022/11/07 11:16:32;;;;;;;6.82;4.18;;;12.30;99.90;;;;;;4983978;28;20038;-78
2022/11/07 11:19:00;;;;;;;10.52;4.50;;;12.30;99.90;;;;;;4985681;28;20124;-76
2022/11/07 11:21:37;;;;;;;5.78;3.67;;;12.30;99.90;;;;;;4968141;28;20379;-74
2022/11/07 11:24:19;;;;;;;9.10;4.22;;;12.30;99.90;;;;;;4985090;28;20264;-76
2022/11/07 11:26:49;;;;;;;11.07;4.70;;;12.30;99.90;;;;;;4952510;28;20402;-75
2022/11/07 11:29:26;;;;;;;10.60;5.05;;;12.30;99.90;;;;;;4973581;28;20072;-74
2022/11/07 11:31:55;;;;;;;12.05;4.57;;;12.30;99.90;;;;;;4984466;28;20100;-76
2022/11/07 11:34:33;;;;;;;12.82;4.15;;;12.40;99.90;;;;;;4985204;28;20049;-74
2022/11/07 11:37:14;;;;;;;5.57;4.18;;;12.40;99.90;;;;;;4982625;28;20544;-77
2022/11/07 11:39:44;;;;;;;18.55;5.13;;;12.40;99.90;;;;;;4983067;28;20049;-75
2022/11/07 11:42:32;;;;;;;8.30;4.93;;;12.30;99.90;;;;;;4983947;28;20157;-75
2022/11/07 11:45:15;;;;;;;9.02;4.47;;;12.40;99.90;;;;;;4984411;28;20073;-74
2022/11/07 11:47:45;;;;;;;6.68;4.13;;;12.40;99.90;;;;;;4967339;28;20050;-75
2022/11/07 11:50:23;;;;;;;18.00;4.82;;;12.50;99.90;;;;;;4965435;28;20043;-73
2022/11/07 11:52:50;;;;;;;6.85;3.72;;;12.60;99.90;;;;;;4967978;28;20133;-74
2022/11/07 11:55:19;;;;;;;18.67;4.55;;;12.60;99.90;;;;;;4983476;28;20585;-73
2022/11/07 11:58:27;;;;;;;12.00;4.93;;;12.70;99.90;;;;;;4984733;28;20054;-76
2022/11/07 12:01:10;;;;;;;5.25;4.07;;;12.70;99.90;;;;;;4952719;28;20077;-75
2022/11/07 12:03:55;;;;;;;11.18;4.57;;;12.80;99.90;;;;;;4983597;28;20452;-74
2022/11/07 12:06:27;;;;;;;14.25;4.75;;;12.80;99.90;;;;;;4982095;28;20042;-74
2022/11/07 12:09:05;;;;;;;9.13;4.85;;;12.90;99.90;;;;;;4984498;28;20370;-75
2022/11/07 12:12:02;;;;;;;9.85;4.97;;;12.90;99.90;;;;;;4983528;28;20069;-75
2022/11/07 12:14:55;;;;;;;6.32;4.10;;;12.90;99.90;;;;;;4967252;28;20102;-74
2022/11/07 12:17:42;;;;;;;7.38;4.60;;;13.00;99.90;;;;;;4983918;28;20042;-74
2022/11/07 12:20:23;;;;;;;7.38;4.80;;;13.00;99.90;;;;;;4965114;28;20083;-75
2022/11/07 12:23:28;;;;;;;7.47;3.45;;;13.00;99.90;;;;;;4967888;28;20034;-74
2022/11/07 12:26:02;;;;;;;5.25;2.90;;;13.00;99.90;;;;;;4974595;28;20055;-74
2022/11/07 12:28:39;;;;;;;8.10;3.78;;;13.00;99.90;;;;;;4982704;28;20504;-74
2022/11/07 12:31:24;;;;;;;5.68;3.42;;;13.00;99.90;;;;;;4982509;28;20082;-75
2022/11/07 12:34:08;;;;;;;6.32;3.85;;;13.00;99.90;;;;;;4968968;28;20043;-76
2022/11/07 12:36:59;;;;;;;6.93;3.67;;;13.10;99.90;;;;;;4983290;28;20054;-75
2022/11/07 12:40:05;;;;;;;7.40;4.27;;;13.10;99.90;;;;;;4975010;28;20141;-76
2022/11/07 12:42:52;;;;;;;6.20;3.97;;;13.10;99.90;;;;;;4982619;28;20405;-74
2022/11/07 12:45:43;;;;;;;5.60;3.97;;;13.10;99.90;;;;;;4983609;28;20137;-75
2022/11/07 12:48:40;;;;;;;9.93;4.10;;;13.10;99.90;;;;;;4983614;28;20046;-74
2022/11/07 12:51:27;;;;;;;7.70;3.50;;;13.10;99.90;;;;;;4981694;28;20082;-76
2022/11/07 12:53:58;;;;;;;4.20;2.92;;;13.10;99.90;;;;;;4981898;28;20054;-75
2022/11/07 12:56:31;;;;;;;8.93;4.07;;;13.10;99.90;;;;;;4983818;28;20043;-75
2022/11/07 12:58:59;;;;;;;11.93;3.90;;;13.00;99.90;;;;;;4982550;28;20065;-75
2022/11/07 13:01:36;;;;;;;12.30;3.92;;;13.00;99.90;;;;;;4984551;28;20081;-74
2022/11/07 13:04:17;;;;;;;12.30;4.63;;;13.00;99.90;;;;;;4981687;28;20050;-74
2022/11/07 13:06:57;;;;;;;12.95;3.88;;;13.00;99.90;;;;;;4982982;28;20052;-74